| Date | Time | Temp. (oF) | Dew Point (oF) | Rel. Hum. (%) | Press. (in.) | Wind Dir. | Wind Speed (mph) | Hourly Rainfall (in.) |
|
|---|---|---|---|---|---|---|---|---|---|
| 1 | 05/06 | 00:00 | 68 | 57 | 70 | 29.80 | SSW | 6 | 0.00 |
| 2 | 05/05 | 23:00 | 68 | 54 | 63 | 29.83 | S | 6 | 0.00 |
| 3 | 05/05 | 22:00 | 69 | 53 | 58 | 29.84 | S | 3 | 0.00 |
| 4 | 05/05 | 21:00 | 71 | 50 | 49 | 29.83 | SE | 2 | 0.00 |
| 5 | 05/05 | 20:00 | 73 | 49 | 44 | 29.83 | S | 4 | 0.00 |
| 6 | 05/05 | 19:00 | 77 | 49 | 39 | 29.83 | S | 3 | 0.00 |
| 7 | 05/05 | 18:00 | 78 | 48 | 36 | 29.85 | ESE | 6 | 0.00 |
| 8 | 05/05 | 17:00 | 80 | 45 | 30 | 29.86 | SW | 6 | 0.00 |
| 9 | 05/05 | 16:00 | 80 | 44 | 29 | 29.88 | SSW | 8 | 0.00 |
| 10 | 05/05 | 15:00 | 80 | 48 | 33 | 29.91 | SSW | 6 | 0.00 |
| 11 | 05/05 | 14:00 | 79 | 46 | 32 | 29.93 | SSE | 11 | 0.00 |
| 12 | 05/05 | 13:00 | 78 | 47 | 35 | 29.95 | SSW | 6 | 0.00 |
| 13 | 05/05 | 12:00 | 77 | 49 | 39 | 29.97 | SW | 4 | 0.00 |
| 14 | 05/05 | 11:00 | 76 | 52 | 44 | 29.98 | SW | 5 | 0.00 |
| 15 | 05/05 | 10:00 | 71 | 54 | 57 | 29.98 | SSW | 1 | 0.00 |
| 16 | 05/05 | 09:00 | 65 | 57 | 77 | 29.98 | S | 3 | 0.00 |
| 17 | 05/05 | 08:00 | 57 | 55 | 95 | 29.98 | SSE | 2 | 0.00 |
| 18 | 05/05 | 07:00 | 51 | 50 | 98 | 29.99 | S | 3 | 0.00 |
| 19 | 05/05 | 06:00 | 51 | 50 | 97 | 29.97 | NNW | 0 | 0.00 |
| 20 | 05/05 | 05:00 | 51 | 49 | 94 | 29.96 | WSW | 0 | 0.00 |
| 21 | 05/05 | 04:00 | 52 | 49 | 91 | 29.94 | W | 0 | 0.00 |
| 22 | 05/05 | 03:00 | 54 | 50 | 88 | 29.93 | WSW | 0 | 0.00 |
| 23 | 05/05 | 02:00 | 56 | 52 | 88 | 29.91 | W | 1 | 0.00 |
| 24 | 05/05 | 01:00 | 56 | 52 | 87 | 29.90 | WSW | 0 | 0.00 |